sensor_id;sensor_type;location;lat;lon;timestamp;noise_LAeq;noise_LA_min;noise_LA_max;noise_LA01;noise_LA95
45478;Laerm;31227;47.986;11.868;2023-05-07T00:01:18;37.96;33.44;41.14;;
45478;Laerm;31227;47.986;11.868;2023-05-07T00:03:43;38.04;32.93;41.22;;
45478;Laerm;31227;47.986;11.868;2023-05-07T00:06:08;37.97;33.44;40.80;;
45478;Laerm;31227;47.986;11.868;2023-05-07T00:08:33;37.89;32.35;41.06;;
45478;Laerm;31227;47.986;11.868;2023-05-07T00:10:58;37.91;30.89;40.98;;
45478;Laerm;31227;47.986;11.868;2023-05-07T00:13:24;37.87;33.09;40.62;;
45478;Laerm;31227;47.986;11.868;2023-05-07T00:15:49;37.72;31.68;40.33;;
45478;Laerm;31227;47.986;11.868;2023-05-07T00:18:14;37.63;32.93;40.43;;
45478;Laerm;31227;47.986;11.868;2023-05-07T00:20:40;37.66;32.35;40.98;;
45478;Laerm;31227;47.986;11.868;2023-05-07T00:23:06;37.66;32.00;40.89;;
45478;Laerm;31227;47.986;11.868;2023-05-07T00:25:31;37.60;33.09;40.62;;
45478;Laerm;31227;47.986;11.868;2023-05-07T00:27:56;37.63;32.93;40.62;;
45478;Laerm;31227;47.986;11.868;2023-05-07T00:30:27;38.33;28.67;42.03;;
45478;Laerm;31227;47.986;11.868;2023-05-07T00:32:52;38.66;34.31;41.46;;
45478;Laerm;31227;47.986;11.868;2023-05-07T00:35:17;38.40;33.09;41.38;;
45478;Laerm;31227;47.986;11.868;2023-05-07T00:37:43;38.18;32.93;40.80;;
45478;Laerm;31227;47.986;11.868;2023-05-07T00:40:08;38.19;32.35;40.89;;
45478;Laerm;31227;47.986;11.868;2023-05-07T00:42:33;38.23;32.93;41.38;;
45478;Laerm;31227;47.986;11.868;2023-05-07T00:44:59;38.34;32.93;41.06;;
45478;Laerm;31227;47.986;11.868;2023-05-07T00:47:24;38.33;33.44;41.68;;
45478;Laerm;31227;47.986;11.868;2023-05-07T00:49:50;38.38;33.44;41.14;;
45478;Laerm;31227;47.986;11.868;2023-05-07T00:52:16;38.24;33.44;41.06;;
45478;Laerm;31227;47.986;11.868;2023-05-07T00:54:42;38.13;32.93;40.71;;
45478;Laerm;31227;47.986;11.868;2023-05-07T00:57:07;38.23;33.90;41.14;;
45478;Laerm;31227;47.986;11.868;2023-05-07T00:59:33;38.02;33.44;40.62;;
45478;Laerm;31227;47.986;11.868;2023-05-07T01:01:59;37.98;31.68;41.06;;
45478;Laerm;31227;47.986;11.868;2023-05-07T01:04:25;37.93;32.35;40.80;;
45478;Laerm;31227;47.986;11.868;2023-05-07T01:06:51;37.90;33.44;40.89;;
45478;Laerm;31227;47.986;11.868;2023-05-07T01:09:16;38.25;30.89;62.92;;
45478;Laerm;31227;47.986;11.868;2023-05-07T01:11:42;37.86;31.68;40.43;;
45478;Laerm;31227;47.986;11.868;2023-05-07T01:14:08;37.84;33.44;40.43;;
45478;Laerm;31227;47.986;11.868;2023-05-07T01:16:34;42.93;32.35;77.46;;
45478;Laerm;31227;47.986;11.868;2023-05-07T01:19:00;38.12;32.35;41.46;;
45478;Laerm;31227;47.986;11.868;2023-05-07T01:21:25;38.19;32.93;41.06;;
45478;Laerm;31227;47.986;11.868;2023-05-07T01:23:51;37.96;32.93;40.62;;
45478;Laerm;31227;47.986;11.868;2023-05-07T01:26:17;37.97;32.35;40.89;;
45478;Laerm;31227;47.986;11.868;2023-05-07T01:28:44;37.98;31.68;40.54;;
45478;Laerm;31227;47.986;11.868;2023-05-07T01:31:09;37.86;29.92;40.98;;
45478;Laerm;31227;47.986;11.868;2023-05-07T01:33:36;37.84;32.35;40.80;;
45478;Laerm;31227;47.986;11.868;2023-05-07T01:36:03;37.87;32.35;40.89;;
45478;Laerm;31227;47.986;11.868;2023-05-07T01:38:31;37.91;32.93;41.22;;
45478;Laerm;31227;47.986;11.868;2023-05-07T01:40:57;37.79;33.44;40.53;;
45478;Laerm;31227;47.986;11.868;2023-05-07T01:43:22;37.68;32.93;40.98;;
45478;Laerm;31227;47.986;11.868;2023-05-07T01:45:47;37.61;32.35;40.33;;
45478;Laerm;31227;47.986;11.868;2023-05-07T01:48:14;37.56;32.93;40.62;;
45478;Laerm;31227;47.986;11.868;2023-05-07T01:50:40;37.56;29.92;40.62;;
45478;Laerm;31227;47.986;11.868;2023-05-07T01:53:06;37.60;32.35;40.23;;
45478;Laerm;31227;47.986;11.868;2023-05-07T01:55:31;37.56;31.68;40.23;;
45478;Laerm;31227;47.986;11.868;2023-05-07T01:57:56;37.61;32.35;40.53;;
45478;Laerm;31227;47.986;11.868;2023-05-07T02:00:22;37.59;32.93;40.53;;
45478;Laerm;31227;47.986;11.868;2023-05-07T02:02:47;38.20;32.93;41.89;;
45478;Laerm;31227;47.986;11.868;2023-05-07T02:05:13;38.59;33.44;41.53;;
45478;Laerm;31227;47.986;11.868;2023-05-07T02:07:38;38.59;33.90;41.53;;
45478;Laerm;31227;47.986;11.868;2023-05-07T02:10:03;38.58;33.44;41.61;;
45478;Laerm;31227;47.986;11.868;2023-05-07T02:12:28;38.65;33.90;41.53;;
45478;Laerm;31227;47.986;11.868;2023-05-07T02:14:54;38.67;33.90;41.22;;
45478;Laerm;31227;47.986;11.868;2023-05-07T02:17:19;38.59;33.90;41.61;;
45478;Laerm;31227;47.986;11.868;2023-05-07T02:19:44;38.46;33.44;41.22;;
45478;Laerm;31227;47.986;11.868;2023-05-07T02:22:09;38.36;31.68;41.06;;
45478;Laerm;31227;47.986;11.868;2023-05-07T02:24:35;38.38;31.68;40.89;;
45478;Laerm;31227;47.986;11.868;2023-05-07T02:27:00;38.29;33.44;41.30;;
45478;Laerm;31227;47.986;11.868;2023-05-07T02:29:26;38.36;33.44;41.53;;
45478;Laerm;31227;47.986;11.868;2023-05-07T02:31:51;38.28;33.44;40.98;;
45478;Laerm;31227;47.986;11.868;2023-05-07T02:34:17;38.48;33.44;41.22;;
45478;Laerm;31227;47.986;11.868;2023-05-07T02:36:43;38.50;32.93;41.30;;
45478;Laerm;31227;47.986;11.868;2023-05-07T02:39:08;38.32;33.90;40.98;;
45478;Laerm;31227;47.986;11.868;2023-05-07T02:41:33;38.62;32.35;41.53;;
45478;Laerm;31227;47.986;11.868;2023-05-07T02:43:58;38.78;33.44;41.46;;
45478;Laerm;31227;47.986;11.868;2023-05-07T02:46:24;38.68;34.31;41.75;;
45478;Laerm;31227;47.986;11.868;2023-05-07T02:48:49;38.68;33.90;41.30;;
45478;Laerm;31227;47.986;11.868;2023-05-07T02:51:14;38.60;33.44;41.88;;
45478;Laerm;31227;47.986;11.868;2023-05-07T02:53:39;38.68;34.31;41.30;;
45478;Laerm;31227;47.986;11.868;2023-05-07T02:56:04;38.59;33.44;41.14;;
45478;Laerm;31227;47.986;11.868;2023-05-07T02:58:31;38.51;33.97;41.68;;
45478;Laerm;31227;47.986;11.868;2023-05-07T03:00:56;38.47;34.31;41.30;;
45478;Laerm;31227;47.986;11.868;2023-05-07T03:03:21;38.23;33.44;41.22;;
45478;Laerm;31227;47.986;11.868;2023-05-07T03:05:47;38.21;33.44;40.80;;
45478;Laerm;31227;47.986;11.868;2023-05-07T03:08:12;38.09;32.93;40.89;;
45478;Laerm;31227;47.986;11.868;2023-05-07T03:10:37;38.12;32.93;41.06;;
45478;Laerm;31227;47.986;11.868;2023-05-07T03:13:03;38.37;32.35;40.98;;
45478;Laerm;31227;47.986;11.868;2023-05-07T03:15:28;38.24;33.90;41.06;;
45478;Laerm;31227;47.986;11.868;2023-05-07T03:17:53;38.23;33.44;40.98;;
45478;Laerm;31227;47.986;11.868;2023-05-07T03:20:19;38.18;33.09;40.98;;
45478;Laerm;31227;47.986;11.868;2023-05-07T03:22:44;38.06;32.93;40.80;;
45478;Laerm;31227;47.986;11.868;2023-05-07T03:25:09;38.08;30.89;41.30;;
45478;Laerm;31227;47.986;11.868;2023-05-07T03:27:35;38.23;32.93;42.59;;
45478;Laerm;31227;47.986;11.868;2023-05-07T03:30:00;38.35;32.93;42.53;;
45478;Laerm;31227;47.986;11.868;2023-05-07T03:32:25;38.55;33.44;42.16;;
45478;Laerm;31227;47.986;11.868;2023-05-07T03:34:50;38.16;33.44;42.16;;
45478;Laerm;31227;47.986;11.868;2023-05-07T03:37:16;38.39;32.93;42.35;;
45478;Laerm;31227;47.986;11.868;2023-05-07T03:39:41;38.14;31.68;43.86;;
45478;Laerm;31227;47.986;11.868;2023-05-07T03:42:06;38.70;32.35;43.54;;
45478;Laerm;31227;47.986;11.868;2023-05-07T03:44:31;38.09;33.44;42.98;;
45478;Laerm;31227;47.986;11.868;2023-05-07T03:46:56;37.90;32.93;41.22;;
45478;Laerm;31227;47.986;11.868;2023-05-07T03:49:22;37.85;33.44;41.06;;
45478;Laerm;31227;47.986;11.868;2023-05-07T03:51:47;37.88;32.35;42.76;;
45478;Laerm;31227;47.986;11.868;2023-05-07T03:54:12;37.88;33.44;41.06;;
45478;Laerm;31227;47.986;11.868;2023-05-07T03:56:37;37.77;30.89;40.79;;
45478;Laerm;31227;47.986;11.868;2023-05-07T03:59:03;37.74;31.68;40.98;;
45478;Laerm;31227;47.986;11.868;2023-05-07T04:01:28;37.66;31.68;40.71;;
45478;Laerm;31227;47.986;11.868;2023-05-07T04:03:53;37.71;33.44;41.14;;
45478;Laerm;31227;47.986;11.868;2023-05-07T04:06:18;37.69;32.35;41.53;;
45478;Laerm;31227;47.986;11.868;2023-05-07T04:08:43;37.61;32.35;40.89;;
45478;Laerm;31227;47.986;11.868;2023-05-07T04:11:09;37.52;30.89;40.71;;
45478;Laerm;31227;47.986;11.868;2023-05-07T04:13:34;37.55;32.35;41.75;;
45478;Laerm;31227;47.986;11.868;2023-05-07T04:16:00;37.55;32.35;40.89;;
45478;Laerm;31227;47.986;11.868;2023-05-07T04:18:26;37.58;32.35;40.80;;
45478;Laerm;31227;47.986;11.868;2023-05-07T04:20:51;37.66;32.93;41.75;;
45478;Laerm;31227;47.986;11.868;2023-05-07T04:23:16;37.51;32.35;40.71;;
45478;Laerm;31227;47.986;11.868;2023-05-07T04:25:42;37.57;32.35;40.53;;
45478;Laerm;31227;47.986;11.868;2023-05-07T04:28:07;37.54;32.35;41.06;;
45478;Laerm;31227;47.986;11.868;2023-05-07T04:30:32;37.54;28.67;40.43;;
45478;Laerm;31227;47.986;11.868;2023-05-07T04:32:57;37.72;33.44;41.14;;
45478;Laerm;31227;47.986;11.868;2023-05-07T04:35:23;37.61;32.35;40.23;;
45478;Laerm;31227;47.986;11.868;2023-05-07T04:37:48;37.59;32.93;40.43;;
45478;Laerm;31227;47.986;11.868;2023-05-07T04:40:13;37.57;32.93;40.33;;
45478;Laerm;31227;47.986;11.868;2023-05-07T04:42:38;37.78;31.68;41.22;;
45478;Laerm;31227;47.986;11.868;2023-05-07T04:45:04;37.71;32.93;40.43;;
45478;Laerm;31227;47.986;11.868;2023-05-07T04:47:30;37.69;32.35;40.62;;
45478;Laerm;31227;47.986;11.868;2023-05-07T04:49:55;37.73;32.35;40.62;;
45478;Laerm;31227;47.986;11.868;2023-05-07T04:52:20;37.69;32.93;40.88;;
45478;Laerm;31227;47.986;11.868;2023-05-07T04:54:45;37.67;32.93;40.53;;
45478;Laerm;31227;47.986;11.868;2023-05-07T04:57:11;37.95;33.44;42.09;;
45478;Laerm;31227;47.986;11.868;2023-05-07T04:59:36;38.62;33.90;42.59;;
45478;Laerm;31227;47.986;11.868;2023-05-07T05:02:01;39.00;33.44;41.89;;
45478;Laerm;31227;47.986;11.868;2023-05-07T05:04:26;38.88;32.93;41.89;;
45478;Laerm;31227;47.986;11.868;2023-05-07T05:06:52;38.58;34.69;41.75;;
45478;Laerm;31227;47.986;11.868;2023-05-07T05:09:17;38.54;33.44;41.14;;
45478;Laerm;31227;47.986;11.868;2023-05-07T05:11:42;38.64;33.44;41.30;;
45478;Laerm;31227;47.986;11.868;2023-05-07T05:14:08;38.79;33.90;41.38;;
45478;Laerm;31227;47.986;11.868;2023-05-07T05:16:33;38.93;34.69;41.61;;
45478;Laerm;31227;47.986;11.868;2023-05-07T05:18:59;38.97;34.69;41.68;;
45478;Laerm;31227;47.986;11.868;2023-05-07T05:21:24;39.13;35.04;41.68;;
45478;Laerm;31227;47.986;11.868;2023-05-07T05:23:49;39.03;35.04;41.68;;
45478;Laerm;31227;47.986;11.868;2023-05-07T05:26:15;38.96;34.69;41.38;;
45478;Laerm;31227;47.986;11.868;2023-05-07T05:28:40;38.88;33.44;42.09;;
45478;Laerm;31227;47.986;11.868;2023-05-07T05:31:05;38.93;32.93;42.09;;
45478;Laerm;31227;47.986;11.868;2023-05-07T05:33:30;38.98;33.90;41.75;;
45478;Laerm;31227;47.986;11.868;2023-05-07T05:35:56;38.95;33.44;41.89;;
45478;Laerm;31227;47.986;11.868;2023-05-07T05:38:21;38.97;33.90;41.82;;
45478;Laerm;31227;47.986;11.868;2023-05-07T05:40:46;38.80;32.93;41.75;;
45478;Laerm;31227;47.986;11.868;2023-05-07T05:43:12;38.65;32.93;41.53;;
45478;Laerm;31227;47.986;11.868;2023-05-07T05:45:37;38.63;34.31;41.38;;
45478;Laerm;31227;47.986;11.868;2023-05-07T05:48:02;38.65;34.31;41.46;;
45478;Laerm;31227;47.986;11.868;2023-05-07T05:50:27;38.53;34.31;41.46;;
45478;Laerm;31227;47.986;11.868;2023-05-07T05:52:53;38.64;34.31;41.38;;
45478;Laerm;31227;47.986;11.868;2023-05-07T05:55:18;38.76;35.04;41.30;;
45478;Laerm;31227;47.986;11.868;2023-05-07T05:57:43;38.57;32.93;41.22;;
45478;Laerm;31227;47.986;11.868;2023-05-07T06:00:09;38.69;33.90;41.30;;
45478;Laerm;31227;47.986;11.868;2023-05-07T06:02:34;38.56;34.31;41.14;;
45478;Laerm;31227;47.986;11.868;2023-05-07T06:04:59;38.55;34.31;41.14;;
45478;Laerm;31227;47.986;11.868;2023-05-07T06:07:25;38.59;33.44;41.53;;
45478;Laerm;31227;47.986;11.868;2023-05-07T06:09:50;38.61;33.55;41.30;;
45478;Laerm;31227;47.986;11.868;2023-05-07T06:12:15;38.57;33.90;41.30;;
45478;Laerm;31227;47.986;11.868;2023-05-07T06:14:42;38.65;31.68;41.22;;
45478;Laerm;31227;47.986;11.868;2023-05-07T06:17:07;38.59;34.31;41.38;;
45478;Laerm;31227;47.986;11.868;2023-05-07T06:19:32;38.49;34.31;42.09;;
45478;Laerm;31227;47.986;11.868;2023-05-07T06:21:58;38.32;33.44;40.89;;
45478;Laerm;31227;47.986;11.868;2023-05-07T06:24:23;38.21;33.44;42.29;;
45478;Laerm;31227;47.986;11.868;2023-05-07T06:26:48;38.20;33.44;40.89;;
45478;Laerm;31227;47.986;11.868;2023-05-07T06:29:14;38.22;32.93;40.80;;
45478;Laerm;31227;47.986;11.868;2023-05-07T06:31:39;38.32;33.90;41.14;;
45478;Laerm;31227;47.986;11.868;2023-05-07T06:34:04;38.28;30.89;40.96;;
45478;Laerm;31227;47.986;11.868;2023-05-07T06:36:30;38.21;33.44;40.89;;
45478;Laerm;31227;47.986;11.868;2023-05-07T06:38:55;38.26;33.44;42.35;;
45478;Laerm;31227;47.986;11.868;2023-05-07T06:41:20;38.20;32.35;41.06;;
45478;Laerm;31227;47.986;11.868;2023-05-07T06:43:46;38.22;32.93;40.62;;
45478;Laerm;31227;47.986;11.868;2023-05-07T06:46:11;38.19;33.44;40.89;;
45478;Laerm;31227;47.986;11.868;2023-05-07T06:48:37;38.09;32.35;40.89;;
45478;Laerm;31227;47.986;11.868;2023-05-07T06:51:02;38.07;33.44;41.68;;
45478;Laerm;31227;47.986;11.868;2023-05-07T06:53:27;38.03;33.90;40.53;;
45478;Laerm;31227;47.986;11.868;2023-05-07T06:55:54;38.05;32.93;40.71;;
45478;Laerm;31227;47.986;11.868;2023-05-07T06:58:19;38.02;33.90;40.71;;
45478;Laerm;31227;47.986;11.868;2023-05-07T07:00:44;38.18;33.44;41.68;;
45478;Laerm;31227;47.986;11.868;2023-05-07T07:03:10;38.46;33.44;40.80;;
45478;Laerm;31227;47.986;11.868;2023-05-07T07:05:36;38.32;33.97;41.46;;
45478;Laerm;31227;47.986;11.868;2023-05-07T07:08:01;38.28;33.90;40.89;;
45478;Laerm;31227;47.986;11.868;2023-05-07T07:10:26;38.25;34.69;40.98;;
45478;Laerm;31227;47.986;11.868;2023-05-07T07:12:51;38.32;33.44;42.29;;
45478;Laerm;31227;47.986;11.868;2023-05-07T07:15:17;38.27;34.69;40.98;;
45478;Laerm;31227;47.986;11.868;2023-05-07T07:17:43;38.38;34.31;41.96;;
45478;Laerm;31227;47.986;11.868;2023-05-07T07:20:08;38.43;34.69;41.14;;
45478;Laerm;31227;47.986;11.868;2023-05-07T07:22:33;38.43;35.04;40.89;;
45478;Laerm;31227;47.986;11.868;2023-05-07T07:24:59;38.52;34.31;40.98;;
45478;Laerm;31227;47.986;11.868;2023-05-07T07:27:24;38.65;35.36;41.14;;
45478;Laerm;31227;47.986;11.868;2023-05-07T07:29:49;38.65;34.31;40.98;;
45478;Laerm;31227;47.986;11.868;2023-05-07T07:32:15;38.75;35.04;41.22;;
45478;Laerm;31227;47.986;11.868;2023-05-07T07:34:40;39.08;35.66;41.75;;
45478;Laerm;31227;47.986;11.868;2023-05-07T07:37:05;39.51;36.45;42.09;;
45478;Laerm;31227;47.986;11.868;2023-05-07T07:39:31;39.62;36.20;42.03;;
45478;Laerm;31227;47.986;11.868;2023-05-07T07:41:57;39.80;36.45;42.22;;
45478;Laerm;31227;47.986;11.868;2023-05-07T07:44:22;39.67;36.91;41.89;;
45478;Laerm;31227;47.986;11.868;2023-05-07T07:46:47;39.72;36.20;42.03;;
45478;Laerm;31227;47.986;11.868;2023-05-07T07:49:12;39.79;35.94;41.89;;
45478;Laerm;31227;47.986;11.868;2023-05-07T07:51:37;39.65;36.20;41.61;;
45478;Laerm;31227;47.986;11.868;2023-05-07T07:54:03;39.83;36.77;43.39;;
45478;Laerm;31227;47.986;11.868;2023-05-07T07:56:28;40.48;37.52;42.53;;
45478;Laerm;31227;47.986;11.868;2023-05-07T07:58:53;40.47;36.91;51.75;;
45478;Laerm;31227;47.986;11.868;2023-05-07T08:01:18;39.96;36.69;42.35;;
45478;Laerm;31227;47.986;11.868;2023-05-07T08:03:44;39.92;36.45;42.35;;
45478;Laerm;31227;47.986;11.868;2023-05-07T08:06:09;40.02;36.69;42.71;;
45478;Laerm;31227;47.986;11.868;2023-05-07T08:08:34;40.02;35.94;42.59;;
45478;Laerm;31227;47.986;11.868;2023-05-07T08:11:00;39.97;36.45;42.16;;
45478;Laerm;31227;47.986;11.868;2023-05-07T08:13:25;39.74;36.20;42.22;;
45478;Laerm;31227;47.986;11.868;2023-05-07T08:15:50;39.92;36.20;42.22;;
45478;Laerm;31227;47.986;11.868;2023-05-07T08:18:16;39.85;36.20;42.22;;
45478;Laerm;31227;47.986;11.868;2023-05-07T08:20:41;39.81;36.20;42.09;;
45478;Laerm;31227;47.986;11.868;2023-05-07T08:23:07;39.92;36.20;43.34;;
45478;Laerm;31227;47.986;11.868;2023-05-07T08:25:33;39.81;36.20;42.47;;
45478;Laerm;31227;47.986;11.868;2023-05-07T08:27:58;39.69;36.20;41.89;;
45478;Laerm;31227;47.986;11.868;2023-05-07T08:30:23;39.68;35.36;41.89;;
45478;Laerm;31227;47.986;11.868;2023-05-07T08:32:48;39.61;35.36;42.16;;
45478;Laerm;31227;47.986;11.868;2023-05-07T08:35:14;39.55;35.94;42.47;;
45478;Laerm;31227;47.986;11.868;2023-05-07T08:37:39;39.62;35.66;42.47;;
45478;Laerm;31227;47.986;11.868;2023-05-07T08:40:04;39.62;35.66;41.75;;
45478;Laerm;31227;47.986;11.868;2023-05-07T08:42:31;39.47;35.66;42.93;;
45478;Laerm;31227;47.986;11.868;2023-05-07T08:44:57;39.45;35.66;41.53;;
45478;Laerm;31227;47.986;11.868;2023-05-07T08:47:22;39.35;35.36;42.09;;
45478;Laerm;31227;47.986;11.868;2023-05-07T08:49:48;39.36;35.94;41.82;;
45478;Laerm;31227;47.986;11.868;2023-05-07T08:52:14;39.42;35.66;41.96;;
45478;Laerm;31227;47.986;11.868;2023-05-07T08:54:39;39.44;35.36;41.61;;
45478;Laerm;31227;47.986;11.868;2023-05-07T08:57:05;39.57;35.66;41.96;;
45478;Laerm;31227;47.986;11.868;2023-05-07T08:59:30;39.55;36.20;43.04;;
45478;Laerm;31227;47.986;11.868;2023-05-07T09:01:55;39.50;35.94;42.35;;
45478;Laerm;31227;47.986;11.868;2023-05-07T09:04:21;39.39;35.36;48.20;;
45478;Laerm;31227;47.986;11.868;2023-05-07T09:06:46;39.46;35.31;42.71;;
45478;Laerm;31227;47.986;11.868;2023-05-07T09:09:14;39.50;35.66;42.59;;
45478;Laerm;31227;47.986;11.868;2023-05-07T09:11:39;39.31;35.36;41.68;;
45478;Laerm;31227;47.986;11.868;2023-05-07T09:14:04;39.13;35.94;41.53;;
45478;Laerm;31227;47.986;11.868;2023-05-07T09:16:30;38.99;34.69;41.22;;
45478;Laerm;31227;47.986;11.868;2023-05-07T09:18:56;39.11;35.66;43.04;;
45478;Laerm;31227;47.986;11.868;2023-05-07T09:21:22;39.30;35.36;43.44;;
45478;Laerm;31227;47.986;11.868;2023-05-07T09:23:48;39.58;35.66;45.27;;
45478;Laerm;31227;47.986;11.868;2023-05-07T09:26:14;39.52;35.94;45.17;;
45478;Laerm;31227;47.986;11.868;2023-05-07T09:28:39;39.33;35.94;44.73;;
45478;Laerm;31227;47.986;11.868;2023-05-07T09:31:05;39.04;35.36;42.13;;
45478;Laerm;31227;47.986;11.868;2023-05-07T09:33:31;39.03;35.66;42.93;;
45478;Laerm;31227;47.986;11.868;2023-05-07T09:35:56;39.26;35.01;43.14;;
45478;Laerm;31227;47.986;11.868;2023-05-07T09:38:21;38.67;33.44;41.75;;
45478;Laerm;31227;47.986;11.868;2023-05-07T09:40:46;38.49;34.69;42.29;;
45478;Laerm;31227;47.986;11.868;2023-05-07T09:43:12;38.48;35.04;41.06;;
45478;Laerm;31227;47.986;11.868;2023-05-07T09:45:38;38.49;34.31;43.04;;
45478;Laerm;31227;47.986;11.868;2023-05-07T09:48:04;38.55;33.90;42.09;;
45478;Laerm;31227;47.986;11.868;2023-05-07T09:50:32;38.26;35.01;40.54;;
45478;Laerm;31227;47.986;11.868;2023-05-07T09:53:01;38.51;34.31;42.93;;
45478;Laerm;31227;47.986;11.868;2023-05-07T09:55:26;38.20;33.90;41.96;;
45478;Laerm;31227;47.986;11.868;2023-05-07T09:57:52;38.52;33.90;42.47;;
45478;Laerm;31227;47.986;11.868;2023-05-07T10:00:21;38.42;34.69;41.89;;
45478;Laerm;31227;47.986;11.868;2023-05-07T10:02:48;38.91;35.36;43.24;;
45478;Laerm;31227;47.986;11.868;2023-05-07T10:05:14;38.87;35.36;43.39;;
45478;Laerm;31227;47.986;11.868;2023-05-07T10:07:40;38.72;35.04;42.53;;
45478;Laerm;31227;47.986;11.868;2023-05-07T10:10:06;38.76;34.69;43.24;;
45478;Laerm;31227;47.986;11.868;2023-05-07T10:12:31;38.66;35.66;41.68;;
45478;Laerm;31227;47.986;11.868;2023-05-07T10:15:02;38.94;35.04;42.98;;
45478;Laerm;31227;47.986;11.868;2023-05-07T10:17:28;39.25;35.94;43.77;;
45478;Laerm;31227;47.986;11.868;2023-05-07T10:19:54;39.00;34.69;43.81;;
45478;Laerm;31227;47.986;11.868;2023-05-07T10:22:19;39.36;36.20;44.47;;
45478;Laerm;31227;47.986;11.868;2023-05-07T10:24:45;39.04;35.36;42.59;;
45478;Laerm;31227;47.986;11.868;2023-05-07T10:27:13;38.67;35.36;41.30;;
45478;Laerm;31227;47.986;11.868;2023-05-07T10:34:40;39.28;33.90;44.23;;
45478;Laerm;31227;47.986;11.868;2023-05-07T10:37:07;38.82;35.04;43.58;;
45478;Laerm;31227;47.986;11.868;2023-05-07T10:39:33;38.91;35.36;44.65;;
45478;Laerm;31227;47.986;11.868;2023-05-07T10:42:09;38.83;35.36;43.44;;
45478;Laerm;31227;47.986;11.868;2023-05-07T10:44:34;38.66;35.36;42.47;;
45478;Laerm;31227;47.986;11.868;2023-05-07T10:47:07;39.32;35.04;48.20;;
45478;Laerm;31227;47.986;11.868;2023-05-07T10:49:34;39.26;35.66;43.24;;
45478;Laerm;31227;47.986;11.868;2023-05-07T10:52:15;38.91;35.04;43.09;;
45478;Laerm;31227;47.986;11.868;2023-05-07T10:54:41;38.85;35.36;42.59;;
45478;Laerm;31227;47.986;11.868;2023-05-07T10:59:51;38.81;35.59;43.54;;
45478;Laerm;31227;47.986;11.868;2023-05-07T11:02:17;38.89;35.66;44.42;;
45478;Laerm;31227;47.986;11.868;2023-05-07T11:04:42;39.02;35.36;45.42;;
45478;Laerm;31227;47.986;11.868;2023-05-07T11:12:18;38.94;35.66;43.49;;
45478;Laerm;31227;47.986;11.868;2023-05-07T11:15:02;39.10;34.69;44.03;;
45478;Laerm;31227;47.986;11.868;2023-05-07T11:17:29;38.84;34.31;42.58;;
45478;Laerm;31227;47.986;11.868;2023-05-07T11:19:57;38.99;35.36;43.19;;
45478;Laerm;31227;47.986;11.868;2023-05-07T11:24:59;38.86;35.36;43.04;;
45478;Laerm;31227;47.986;11.868;2023-05-07T11:27:24;38.78;35.94;43.44;;
45478;Laerm;31227;47.986;11.868;2023-05-07T11:29:50;38.85;35.04;42.93;;
45478;Laerm;31227;47.986;11.868;2023-05-07T11:32:15;38.82;34.69;42.76;;
45478;Laerm;31227;47.986;11.868;2023-05-07T11:34:41;40.22;35.66;54.32;;
45478;Laerm;31227;47.986;11.868;2023-05-07T11:37:07;38.93;35.66;43.94;;
45478;Laerm;31227;47.986;11.868;2023-05-07T11:39:33;38.99;34.69;43.80;;
45478;Laerm;31227;47.986;11.868;2023-05-07T11:41:59;38.85;35.36;43.39;;
45478;Laerm;31227;47.986;11.868;2023-05-07T11:44:24;39.09;35.36;43.44;;
45478;Laerm;31227;47.986;11.868;2023-05-07T11:46:49;39.26;35.66;43.14;;
45478;Laerm;31227;47.986;11.868;2023-05-07T11:49:15;38.85;35.31;43.63;;
45478;Laerm;31227;47.986;11.868;2023-05-07T11:51:40;38.73;34.69;43.86;;
45478;Laerm;31227;47.986;11.868;2023-05-07T11:54:07;39.05;35.66;43.19;;
45478;Laerm;31227;47.986;11.868;2023-05-07T11:56:34;39.02;35.36;42.82;;
45478;Laerm;31227;47.986;11.868;2023-05-07T11:59:00;38.93;35.04;43.77;;
45478;Laerm;31227;47.986;11.868;2023-05-07T12:01:25;38.99;35.36;43.58;;
45478;Laerm;31227;47.986;11.868;2023-05-07T12:03:50;39.09;35.04;59.73;;
45478;Laerm;31227;47.986;11.868;2023-05-07T12:06:16;39.16;33.90;43.44;;
45478;Laerm;31227;47.986;11.868;2023-05-07T12:08:42;39.30;35.36;44.80;;
45478;Laerm;31227;47.986;11.868;2023-05-07T12:11:08;39.28;35.94;42.98;;
45478;Laerm;31227;47.986;11.868;2023-05-07T12:13:34;39.44;35.36;44.31;;
45478;Laerm;31227;47.986;11.868;2023-05-07T12:16:00;38.61;34.69;41.82;;
45478;Laerm;31227;47.986;11.868;2023-05-07T12:18:28;39.09;35.36;43.49;;
45478;Laerm;31227;47.986;11.868;2023-05-07T12:20:53;38.82;35.04;42.65;;
45478;Laerm;31227;47.986;11.868;2023-05-07T12:23:19;38.72;35.36;42.59;;
45478;Laerm;31227;47.986;11.868;2023-05-07T12:25:45;38.91;35.66;43.44;;
45478;Laerm;31227;47.986;11.868;2023-05-07T12:28:14;38.70;35.04;42.41;;
45478;Laerm;31227;47.986;11.868;2023-05-07T12:30:40;38.97;35.36;42.93;;
45478;Laerm;31227;47.986;11.868;2023-05-07T12:33:06;38.72;35.04;42.71;;
45478;Laerm;31227;47.986;11.868;2023-05-07T12:35:32;38.75;35.04;42.88;;
45478;Laerm;31227;47.986;11.868;2023-05-07T12:37:58;38.93;35.04;43.54;;
45478;Laerm;31227;47.986;11.868;2023-05-07T12:40:34;39.23;35.36;44.27;;
45478;Laerm;31227;47.986;11.868;2023-05-07T12:43:00;39.14;35.36;43.44;;
45478;Laerm;31227;47.986;11.868;2023-05-07T12:45:25;39.04;35.04;42.93;;
45478;Laerm;31227;47.986;11.868;2023-05-07T12:47:50;39.06;35.04;44.62;;
45478;Laerm;31227;47.986;11.868;2023-05-07T12:50:16;38.90;35.36;43.77;;
45478;Laerm;31227;47.986;11.868;2023-05-07T12:52:42;38.77;34.31;43.04;;
45478;Laerm;31227;47.986;11.868;2023-05-07T12:55:08;38.63;33.90;43.14;;
45478;Laerm;31227;47.986;11.868;2023-05-07T12:57:40;39.15;35.36;44.31;;
45478;Laerm;31227;47.986;11.868;2023-05-07T13:00:05;39.10;35.04;45.33;;
45478;Laerm;31227;47.986;11.868;2023-05-07T13:02:34;39.04;35.36;43.09;;
45478;Laerm;31227;47.986;11.868;2023-05-07T13:05:02;39.17;35.04;44.94;;
45478;Laerm;31227;47.986;11.868;2023-05-07T13:07:28;38.85;35.04;43.90;;
45478;Laerm;31227;47.986;11.868;2023-05-07T13:09:53;38.80;35.36;42.76;;
45478;Laerm;31227;47.986;11.868;2023-05-07T13:12:18;38.74;35.04;42.76;;
45478;Laerm;31227;47.986;11.868;2023-05-07T13:14:43;38.58;35.36;43.29;;
45478;Laerm;31227;47.986;11.868;2023-05-07T13:17:08;39.07;35.04;43.24;;
45478;Laerm;31227;47.986;11.868;2023-05-07T13:19:33;38.67;34.31;43.34;;
45478;Laerm;31227;47.986;11.868;2023-05-07T13:21:59;38.46;35.04;41.46;;
45478;Laerm;31227;47.986;11.868;2023-05-07T13:24:24;39.10;35.36;44.62;;
45478;Laerm;31227;47.986;11.868;2023-05-07T13:26:49;38.93;35.36;43.68;;
45478;Laerm;31227;47.986;11.868;2023-05-07T13:29:15;38.42;34.69;41.82;;
45478;Laerm;31227;47.986;11.868;2023-05-07T13:31:40;39.05;34.69;44.80;;
45478;Laerm;31227;47.986;11.868;2023-05-07T13:34:08;38.46;35.36;43.09;;
45478;Laerm;31227;47.986;11.868;2023-05-07T13:36:34;38.69;35.04;45.39;;
45478;Laerm;31227;47.986;11.868;2023-05-07T13:39:02;38.93;34.31;43.85;;